createdAt,value
2023-08-03T00:00:50.130Z,8.97
2023-08-03T00:03:18.983Z,10.88
2023-08-03T00:05:48.657Z,10.40
2023-08-03T00:08:17.327Z,8.57
2023-08-03T00:10:47.223Z,8.35
2023-08-03T00:13:16.005Z,8.60
2023-08-03T00:15:47.562Z,5.57
2023-08-03T00:18:16.331Z,7.97
2023-08-03T00:20:45.066Z,7.68
2023-08-03T00:23:13.565Z,9.18
2023-08-03T00:25:42.085Z,11.60
2023-08-03T00:28:12.039Z,6.88
2023-08-03T00:30:41.330Z,9.85
2023-08-03T00:33:09.869Z,6.60
2023-08-03T00:35:38.405Z,7.50
2023-08-03T00:38:06.890Z,9.63
2023-08-03T00:40:36.093Z,10.32
2023-08-03T00:43:05.817Z,9.32
2023-08-03T00:45:35.992Z,10.27
2023-08-03T00:48:04.905Z,7.13
2023-08-03T00:50:33.615Z,9.97
2023-08-03T00:53:02.207Z,6.88
2023-08-03T00:55:30.741Z,6.18
2023-08-03T00:58:00.617Z,8.38
2023-08-03T01:00:29.253Z,9.30
2023-08-03T01:02:59.667Z,7.80
2023-08-03T01:05:28.413Z,6.95
2023-08-03T01:07:58.119Z,9.98
2023-08-03T01:10:27.266Z,9.27
2023-08-03T01:12:56.096Z,12.77
2023-08-03T01:15:24.865Z,10.33
2023-08-03T01:17:53.535Z,8.82
2023-08-03T01:20:24.272Z,9.25
2023-08-03T01:22:54.214Z,9.23
2023-08-03T01:25:22.825Z,11.10
2023-08-03T01:27:51.561Z,8.37
2023-08-03T01:30:20.093Z,7.47
2023-08-03T01:32:48.641Z,11.25
2023-08-03T01:35:17.490Z,9.93
2023-08-03T01:37:46.135Z,8.48
2023-08-03T01:40:16.655Z,7.07
2023-08-03T01:42:45.429Z,11.70
2023-08-03T01:45:14.135Z,6.20
2023-08-03T01:47:42.736Z,7.15
2023-08-03T01:50:11.790Z,7.35
2023-08-03T01:52:40.342Z,8.47
2023-08-03T01:55:10.123Z,9.20
2023-08-03T01:57:40.068Z,7.93
2023-08-03T02:00:09.706Z,6.25
2023-08-03T02:02:38.648Z,7.93
2023-08-03T02:05:07.907Z,8.20
2023-08-03T02:07:55.857Z,9.07
2023-08-03T02:10:26.151Z,5.80
2023-08-03T02:12:56.397Z,8.05
2023-08-03T02:15:26.755Z,10.27
2023-08-03T02:17:55.362Z,6.53
2023-08-03T02:20:24.158Z,6.28
2023-08-03T02:22:52.907Z,6.38
2023-08-03T02:25:25.018Z,6.82
2023-08-03T02:27:55.379Z,7.65
2023-08-03T02:30:24.064Z,8.67
2023-08-03T02:32:52.740Z,5.15
2023-08-03T02:35:21.336Z,6.13
2023-08-03T02:37:50.105Z,7.32
2023-08-03T02:40:18.798Z,9.25
2023-08-03T02:42:47.356Z,8.77
2023-08-03T02:45:17.491Z,8.73
2023-08-03T02:47:46.094Z,7.70
2023-08-03T02:50:14.964Z,7.35
2023-08-03T02:52:43.515Z,8.85
2023-08-03T02:55:12.339Z,6.10
2023-08-03T02:57:40.900Z,8.18
2023-08-03T03:00:11.020Z,7.97
2023-08-03T03:02:41.031Z,9.45
2023-08-03T03:05:10.501Z,6.30
2023-08-03T03:07:39.073Z,7.87
2023-08-03T03:10:08.471Z,7.93
2023-08-03T03:12:37.023Z,7.63
2023-08-03T03:15:06.336Z,5.90
2023-08-03T03:17:35.424Z,7.72
2023-08-03T03:20:07.161Z,5.90
2023-08-03T03:22:36.443Z,9.65
2023-08-03T03:25:05.323Z,6.70
2023-08-03T03:27:34.021Z,7.25
2023-08-03T03:30:02.559Z,8.18
2023-08-03T03:32:31.179Z,6.17
2023-08-03T03:35:00.031Z,6.40
2023-08-03T03:37:29.970Z,7.95
2023-08-03T03:39:58.526Z,7.13
2023-08-03T03:42:27.088Z,8.88
2023-08-03T03:44:55.627Z,6.70
2023-08-03T03:47:24.540Z,7.72
2023-08-03T03:49:53.159Z,6.35
2023-08-03T03:52:21.699Z,6.75
2023-08-03T03:54:51.624Z,6.50
2023-08-03T03:57:20.178Z,5.63
2023-08-03T03:59:48.932Z,5.97
2023-08-03T04:02:17.702Z,5.57
2023-08-03T04:04:46.273Z,5.15
2023-08-03T04:07:14.808Z,6.65
2023-08-03T04:09:43.311Z,4.53
2023-08-03T04:12:14.386Z,7.72
2023-08-03T04:14:42.941Z,6.93
2023-08-03T04:17:11.477Z,4.90
2023-08-03T04:19:40.238Z,9.85
2023-08-03T04:22:09.350Z,6.20
2023-08-03T04:24:40.069Z,6.70
2023-08-03T04:27:09.552Z,6.72
2023-08-03T04:29:42.472Z,6.10
2023-08-03T04:32:11.092Z,10.32
2023-08-03T04:34:40.611Z,7.30
2023-08-03T04:37:09.170Z,6.03
2023-08-03T04:39:37.960Z,4.82
2023-08-03T04:42:07.260Z,7.38
2023-08-03T04:44:36.092Z,8.18
2023-08-03T04:47:06.833Z,7.00
2023-08-03T04:49:35.589Z,7.75
2023-08-03T04:52:04.283Z,6.60
2023-08-03T04:54:33.009Z,7.38
2023-08-03T04:57:01.788Z,5.93
2023-08-03T04:59:30.357Z,7.50
2023-08-03T05:01:59.257Z,4.75
2023-08-03T05:04:29.400Z,9.63
2023-08-03T05:06:58.176Z,7.90
2023-08-03T05:09:27.274Z,5.53
2023-08-03T05:11:56.012Z,6.40
2023-08-03T05:14:24.510Z,7.53
2023-08-03T05:16:53.263Z,7.85
2023-08-03T05:19:21.810Z,6.38
2023-08-03T05:21:51.713Z,6.30
2023-08-03T05:24:20.253Z,5.30
2023-08-03T05:26:48.805Z,4.78
2023-08-03T05:29:17.448Z,6.15
2023-08-03T05:31:49.460Z,5.28
2023-08-03T05:34:18.344Z,5.93
2023-08-03T05:36:46.922Z,6.27
2023-08-03T05:39:17.619Z,7.03
2023-08-03T05:41:46.428Z,4.30
2023-08-03T05:44:15.787Z,4.95
2023-08-03T05:46:44.402Z,6.57
2023-08-03T05:49:14.684Z,4.50
2023-08-03T05:51:43.619Z,4.25
2023-08-03T05:54:17.323Z,4.35
2023-08-03T05:56:47.713Z,5.35
2023-08-03T05:59:21.801Z,6.03
2023-08-03T06:01:52.021Z,3.63
2023-08-03T06:04:21.638Z,5.70
2023-08-03T06:06:50.470Z,4.50
2023-08-03T06:09:23.846Z,5.43
2023-08-03T06:11:54.541Z,4.75
2023-08-03T06:14:23.601Z,5.43
2023-08-03T06:16:52.162Z,4.18
2023-08-03T06:19:20.953Z,4.60
2023-08-03T06:21:49.514Z,5.63
2023-08-03T06:24:23.281Z,4.65
2023-08-03T06:26:53.109Z,6.07
2023-08-03T06:29:21.888Z,5.00
2023-08-03T06:31:50.460Z,6.85
2023-08-03T06:34:20.027Z,4.65
2023-08-03T06:36:50.031Z,3.85
2023-08-03T06:39:20.016Z,5.43
2023-08-03T06:41:48.606Z,4.28
2023-08-03T06:44:17.320Z,3.85
2023-08-03T06:46:45.928Z,5.95
2023-08-03T06:49:14.559Z,4.38
2023-08-03T06:51:43.347Z,5.50
2023-08-03T06:54:12.518Z,5.65
2023-08-03T06:56:42.444Z,4.60
2023-08-03T06:59:11.172Z,5.95
2023-08-03T07:01:40.004Z,5.50
2023-08-03T07:04:08.601Z,4.43
2023-08-03T07:06:37.410Z,4.07
2023-08-03T07:09:05.950Z,4.55
2023-08-03T07:11:34.721Z,3.67
2023-08-03T07:14:04.662Z,4.78
2023-08-03T07:16:33.448Z,4.47
2023-08-03T07:19:02.013Z,4.82
2023-08-03T07:21:30.862Z,3.95
2023-08-03T07:23:59.376Z,5.47
2023-08-03T07:26:27.933Z,5.20
2023-08-03T07:28:56.597Z,5.53
2023-08-03T07:31:27.430Z,4.03
2023-08-03T07:33:56.015Z,4.95
2023-08-03T07:36:24.591Z,5.20
2023-08-03T07:38:54.103Z,5.65
2023-08-03T07:41:22.710Z,5.10
2023-08-03T07:43:52.677Z,5.95
2023-08-03T07:46:21.320Z,5.22
2023-08-03T07:48:51.267Z,4.68
2023-08-03T07:51:21.899Z,4.80
2023-08-03T07:53:51.368Z,3.57
2023-08-03T07:56:22.268Z,5.68
2023-08-03T07:58:52.218Z,4.07
2023-08-03T08:01:22.033Z,4.53
2023-08-03T08:03:52.723Z,5.90
2023-08-03T08:06:22.695Z,4.47
2023-08-03T08:08:53.596Z,4.72
2023-08-03T08:11:22.468Z,5.00
2023-08-03T08:13:51.011Z,6.43
2023-08-03T08:16:20.049Z,4.05
2023-08-03T08:18:48.937Z,3.40
2023-08-03T08:21:18.953Z,5.25
2023-08-03T08:23:47.511Z,4.93
2023-08-03T08:26:20.516Z,4.03
2023-08-03T08:29:03.229Z,5.13
2023-08-03T08:31:52.642Z,4.77
2023-08-03T08:34:21.374Z,5.30
2023-08-03T08:36:53.005Z,5.05
2023-08-03T08:39:21.939Z,7.90
2023-08-03T08:41:50.851Z,5.18
2023-08-03T08:44:20.500Z,4.43
2023-08-03T08:46:49.659Z,5.10
2023-08-03T08:51:58.131Z,5.30
2023-08-03T08:57:10.029Z,3.63
2023-08-03T08:59:40.269Z,4.32
2023-08-03T09:02:10.627Z,7.20
2023-08-03T09:04:39.429Z,4.80
2023-08-03T09:07:09.773Z,4.30
2023-08-03T09:09:40.164Z,6.03
2023-08-03T09:12:12.078Z,4.13
2023-08-03T09:14:51.950Z,5.68
2023-08-03T09:17:23.958Z,5.32
2023-08-03T09:25:04.782Z,5.22
2023-08-03T09:35:19.703Z,5.10
2023-08-03T09:37:51.553Z,4.82
2023-08-03T09:40:21.479Z,3.88
2023-08-03T09:42:51.336Z,6.25
2023-08-03T09:47:53.084Z,4.53
2023-08-03T09:50:22.578Z,4.20
2023-08-03T09:52:55.772Z,5.45
2023-08-03T09:55:31.067Z,6.00
2023-08-03T09:58:05.516Z,6.88
2023-08-03T10:00:35.932Z,5.97
2023-08-03T10:03:10.556Z,4.75
2023-08-03T10:05:43.929Z,4.78
2023-08-03T10:08:24.331Z,6.28
2023-08-03T10:10:57.349Z,4.47
2023-08-03T10:13:28.060Z,4.93
2023-08-03T10:15:57.582Z,4.90
2023-08-03T10:18:49.181Z,4.40
2023-08-03T10:21:15.995Z,4.68
2023-08-03T10:24:15.168Z,4.03
2023-08-03T10:26:45.572Z,4.60
2023-08-03T10:29:14.619Z,4.00
2023-08-03T10:31:55.933Z,4.47
2023-08-03T10:34:28.310Z,5.45
2023-08-03T10:36:59.170Z,4.80
2023-08-03T10:39:54.070Z,5.70
2023-08-03T10:42:34.310Z,3.97
2023-08-03T10:45:29.787Z,4.93
2023-08-03T10:48:31.556Z,3.83
2023-08-03T10:51:04.418Z,3.50
2023-08-03T10:53:33.195Z,3.70
2023-08-03T10:56:12.151Z,4.68
2023-08-03T10:58:46.436Z,5.43
2023-08-03T11:01:17.354Z,4.45
2023-08-03T11:03:46.224Z,6.85
2023-08-03T11:06:15.387Z,6.20
2023-08-03T11:08:44.060Z,9.32
2023-08-03T11:11:14.554Z,3.83
2023-08-03T11:13:46.378Z,5.30
2023-08-03T11:16:16.912Z,4.55
2023-08-03T11:18:47.740Z,3.87
2023-08-03T11:21:17.027Z,4.22
2023-08-03T11:23:45.688Z,5.57
2023-08-03T11:26:15.683Z,4.18
2023-08-03T11:28:46.072Z,3.90
2023-08-03T11:31:18.421Z,5.57
2023-08-03T11:33:54.100Z,4.22
2023-08-03T11:36:25.631Z,4.95
2023-08-03T11:38:54.909Z,6.03
2023-08-03T11:43:58.579Z,5.83
2023-08-03T11:46:29.903Z,4.00
2023-08-03T11:48:59.707Z,3.88
2023-08-03T11:51:36.381Z,3.67
2023-08-03T11:54:06.116Z,4.78
2023-08-03T11:56:44.318Z,3.27
2023-08-03T11:59:13.098Z,4.57
2023-08-03T12:01:50.230Z,4.57
2023-08-03T12:04:22.031Z,3.78
2023-08-03T12:06:54.469Z,3.70
2023-08-03T12:09:26.800Z,4.83
2023-08-03T12:12:04.371Z,3.38
2023-08-03T12:14:33.235Z,3.47
2023-08-03T12:19:36.008Z,5.43
2023-08-03T12:22:05.578Z,4.30
2023-08-03T12:24:34.268Z,4.18
2023-08-03T12:27:09.679Z,4.43
2023-08-03T12:29:42.263Z,4.70
2023-08-03T12:32:12.946Z,4.78
2023-08-03T12:34:41.746Z,4.23
2023-08-03T12:37:10.338Z,3.92
2023-08-03T12:39:38.943Z,3.60
2023-08-03T12:42:09.341Z,4.10
2023-08-03T12:44:37.918Z,3.85
2023-08-03T12:47:09.219Z,3.30
2023-08-03T12:49:38.156Z,4.50
2023-08-03T12:52:07.662Z,5.10
2023-08-03T12:54:36.514Z,5.18
2023-08-03T12:57:05.413Z,5.57
2023-08-03T12:59:35.358Z,5.63
2023-08-03T13:02:04.440Z,5.93
2023-08-03T13:04:33.057Z,4.25
2023-08-03T13:07:02.065Z,5.35
2023-08-03T13:09:30.628Z,3.65
2023-08-03T13:11:59.234Z,3.87
2023-08-03T13:14:27.899Z,5.78
2023-08-03T13:17:00.244Z,6.13
2023-08-03T13:19:30.540Z,5.50
2023-08-03T13:21:59.112Z,3.67
2023-08-03T13:24:27.772Z,4.23
2023-08-03T13:27:13.178Z,3.47
2023-08-03T13:29:45.906Z,4.28
2023-08-03T13:32:17.000Z,4.90
2023-08-03T13:34:45.818Z,3.90
2023-08-03T13:37:14.672Z,3.53
2023-08-03T13:39:43.222Z,4.30
2023-08-03T13:42:11.808Z,4.68
2023-08-03T13:44:40.365Z,4.63
2023-08-03T13:47:09.193Z,4.07
2023-08-03T13:49:39.124Z,5.20
2023-08-03T13:52:08.409Z,4.38
2023-08-03T13:54:36.961Z,8.65
2023-08-03T13:57:09.034Z,4.28
2023-08-03T13:59:37.830Z,4.95
2023-08-03T14:02:07.290Z,4.30
2023-08-03T14:04:36.841Z,3.65
2023-08-03T14:09:39.360Z,4.35
2023-08-03T14:12:08.928Z,5.03
2023-08-03T14:17:10.485Z,4.80
2023-08-03T14:19:39.612Z,4.22
2023-08-03T14:22:12.721Z,3.10
2023-08-03T14:25:42.880Z,6.47
2023-08-03T14:27:30.391Z,4.77
2023-08-03T14:30:02.259Z,5.30
2023-08-03T14:32:31.234Z,3.92
2023-08-03T14:37:33.027Z,4.43
2023-08-03T14:40:02.182Z,3.97
2023-08-03T14:42:31.947Z,3.40
2023-08-03T14:45:00.716Z,2.95
2023-08-03T14:47:29.321Z,4.13
2023-08-03T14:52:29.949Z,5.37
2023-08-03T14:55:00.136Z,4.35
2023-08-03T14:57:28.699Z,3.97
2023-08-03T14:59:57.396Z,4.80
2023-08-03T15:02:27.761Z,4.95
2023-08-03T15:04:56.792Z,4.30
2023-08-03T15:07:25.477Z,5.60
2023-08-03T15:09:55.867Z,4.10
2023-08-03T15:12:26.385Z,3.28
2023-08-03T15:14:55.426Z,4.40
2023-08-03T15:17:26.269Z,3.67
2023-08-03T15:22:29.409Z,4.90
2023-08-03T15:25:00.258Z,3.88
2023-08-03T15:27:32.568Z,4.18
2023-08-03T15:35:24.922Z,3.53
2023-08-03T15:37:54.419Z,4.90
2023-08-03T15:40:26.092Z,4.22
2023-08-03T15:45:35.693Z,5.20
2023-08-03T15:48:43.476Z,3.78
2023-08-03T15:50:59.775Z,5.75
2023-08-03T15:53:37.706Z,3.58
2023-08-03T15:56:07.758Z,3.20
2023-08-03T15:58:37.789Z,3.05
2023-08-03T16:01:07.842Z,4.43
2023-08-03T16:03:38.576Z,3.97
2023-08-03T16:06:14.100Z,4.38
2023-08-03T16:08:43.747Z,3.60
2023-08-03T16:11:12.737Z,4.10
2023-08-03T16:13:42.795Z,4.57
2023-08-03T16:16:12.514Z,4.53
2023-08-03T16:18:41.180Z,5.22
2023-08-03T16:21:11.176Z,3.90
2023-08-03T16:23:39.923Z,4.40
2023-08-03T16:26:09.683Z,3.70
2023-08-03T16:28:38.602Z,3.63
2023-08-03T16:31:16.722Z,4.38
2023-08-03T16:33:46.351Z,4.43
2023-08-03T16:36:16.739Z,4.38
2023-08-03T16:38:46.528Z,3.22
2023-08-03T16:41:15.552Z,4.57
2023-08-03T16:43:44.420Z,3.80
2023-08-03T16:46:13.039Z,3.73
2023-08-03T16:48:43.062Z,5.65
2023-08-03T16:51:11.859Z,4.35
2023-08-03T16:53:40.380Z,4.70
2023-08-03T16:56:08.895Z,4.85
2023-08-03T16:58:37.701Z,3.77
2023-08-03T17:01:06.386Z,4.05
2023-08-03T17:03:35.322Z,5.72
2023-08-03T17:06:05.411Z,4.57
2023-08-03T17:08:33.951Z,5.75
2023-08-03T17:11:02.479Z,4.27
2023-08-03T17:13:31.006Z,3.67
2023-08-03T17:16:05.090Z,3.30
2023-08-03T17:18:34.455Z,3.45
2023-08-03T17:21:04.868Z,4.25
2023-08-03T17:23:33.771Z,4.77
2023-08-03T17:26:03.040Z,3.60
2023-08-03T17:28:33.179Z,3.00
2023-08-03T17:31:08.669Z,3.15
2023-08-03T17:33:38.578Z,3.10
2023-08-03T17:36:16.647Z,3.77
2023-08-03T17:38:45.936Z,3.78
2023-08-03T17:41:15.266Z,5.68
2023-08-03T17:43:44.021Z,3.78
2023-08-03T17:46:12.616Z,3.53
2023-08-03T17:48:41.240Z,3.10
2023-08-03T17:51:12.613Z,3.92
2023-08-03T17:53:46.056Z,3.28
2023-08-03T17:56:16.288Z,2.85
2023-08-03T17:58:46.653Z,3.10
2023-08-03T18:01:17.414Z,4.23
2023-08-03T18:03:46.527Z,3.22
2023-08-03T18:06:17.433Z,4.90
2023-08-03T18:08:47.423Z,4.63
2023-08-03T18:11:16.712Z,4.40
2023-08-03T18:13:45.999Z,4.30
2023-08-03T18:16:16.396Z,3.13
2023-08-03T18:18:48.994Z,3.47
2023-08-03T18:21:21.191Z,3.35
2023-08-03T18:23:53.111Z,3.78
2023-08-03T18:26:21.665Z,4.03
2023-08-03T18:28:52.222Z,3.40
2023-08-03T18:31:21.118Z,4.30
2023-08-03T18:33:50.033Z,4.18
2023-08-03T18:36:20.463Z,5.00
2023-08-03T18:38:54.367Z,7.47
2023-08-03T18:41:25.394Z,3.35
2023-08-03T18:43:54.549Z,3.50
2023-08-03T18:46:26.377Z,6.85
2023-08-03T18:48:55.291Z,3.67
2023-08-03T18:51:24.924Z,3.73
2023-08-03T18:53:54.935Z,4.53
2023-08-03T18:56:25.877Z,4.47
2023-08-03T18:58:57.044Z,5.13
2023-08-03T19:01:27.677Z,3.80
2023-08-03T19:03:58.258Z,3.63
2023-08-03T19:06:27.708Z,4.32
2023-08-03T19:08:58.126Z,4.13
2023-08-03T19:11:26.721Z,4.45
2023-08-03T19:13:55.258Z,4.25
2023-08-03T19:16:28.719Z,3.57
2023-08-03T19:18:57.808Z,3.45
2023-08-03T19:21:26.361Z,5.15
2023-08-03T19:23:56.269Z,5.13
2023-08-03T19:26:24.870Z,6.53
2023-08-03T19:28:53.413Z,3.67
2023-08-03T19:31:21.976Z,4.47
2023-08-03T19:33:50.549Z,3.03
2023-08-03T19:36:20.142Z,8.57
2023-08-03T19:38:49.214Z,4.40
2023-08-03T19:41:20.089Z,5.10
2023-08-03T19:43:48.630Z,4.43
2023-08-03T19:46:17.380Z,9.02
2023-08-03T19:48:46.298Z,5.88
2023-08-03T19:53:46.252Z,3.83
2023-08-03T20:06:22.368Z,4.10
2023-08-03T20:08:53.223Z,4.97
2023-08-03T20:11:22.078Z,4.65
2023-08-03T20:21:27.421Z,3.92
2023-08-03T20:23:57.870Z,3.33
2023-08-03T20:29:05.658Z,3.53
2023-08-03T20:31:35.341Z,5.03
2023-08-03T20:36:36.769Z,4.50
2023-08-03T20:39:17.380Z,5.35
2023-08-03T20:41:55.959Z,5.03
2023-08-03T20:45:00.158Z,4.97
2023-08-03T20:49:47.256Z,3.63
2023-08-03T20:52:17.618Z,4.22
2023-08-03T20:54:46.454Z,5.35
2023-08-03T20:57:15.056Z,5.80
2023-08-03T20:59:45.112Z,4.68
2023-08-03T21:02:13.729Z,3.70
2023-08-03T21:04:42.377Z,4.45
2023-08-03T21:07:11.007Z,3.92
2023-08-03T21:09:39.711Z,5.23
2023-08-03T21:12:09.506Z,4.95
2023-08-03T21:14:38.090Z,3.83
2023-08-03T21:17:08.454Z,4.97
2023-08-03T21:19:37.037Z,5.45
2023-08-03T21:22:05.934Z,4.70
2023-08-03T21:24:34.517Z,3.83
2023-08-03T21:27:03.061Z,4.85
2023-08-03T21:29:31.661Z,3.95
2023-08-03T21:32:00.330Z,3.72
2023-08-03T21:34:30.405Z,4.10
2023-08-03T21:36:59.233Z,5.90
2023-08-03T21:39:27.850Z,6.10
2023-08-03T21:41:56.481Z,4.57
2023-08-03T21:44:25.199Z,6.55
2023-08-03T21:46:53.859Z,4.10
2023-08-03T21:49:22.634Z,3.70
2023-08-03T21:51:52.602Z,7.03
2023-08-03T21:54:21.186Z,6.43
2023-08-03T21:56:49.798Z,4.60
2023-08-03T21:59:18.418Z,4.70
2023-08-03T22:01:48.015Z,5.28
2023-08-03T22:04:17.050Z,4.28
2023-08-03T22:06:45.631Z,5.97
2023-08-03T22:09:16.224Z,3.60
2023-08-03T22:11:45.130Z,8.87
2023-08-03T22:14:14.079Z,5.40
2023-08-03T22:16:42.713Z,7.80
2023-08-03T22:19:12.873Z,6.40
2023-08-03T22:21:41.489Z,6.90
2023-08-03T22:24:10.581Z,4.33
2023-08-03T22:26:40.594Z,4.43
2023-08-03T22:29:10.912Z,5.95
2023-08-03T22:31:39.586Z,5.38
2023-08-03T22:34:08.188Z,7.15
2023-08-03T22:36:36.876Z,6.37
2023-08-03T22:39:05.598Z,3.83
2023-08-03T22:41:34.708Z,5.07
2023-08-03T22:44:04.852Z,4.53
2023-08-03T22:46:33.535Z,4.78
2023-08-03T22:49:02.145Z,5.77
2023-08-03T22:51:30.888Z,5.82
2023-08-03T22:53:59.708Z,7.47
2023-08-03T22:56:28.567Z,7.03
2023-08-03T22:58:57.228Z,3.80
2023-08-03T23:01:27.544Z,4.77
2023-08-03T23:03:56.317Z,3.53
2023-08-03T23:06:25.702Z,4.63
2023-08-03T23:08:54.242Z,7.63
2023-08-03T23:11:23.136Z,6.60
2023-08-03T23:13:51.707Z,4.93
2023-08-03T23:16:20.732Z,4.72
2023-08-03T23:18:52.116Z,7.38
2023-08-03T23:21:20.701Z,4.47
2023-08-03T23:23:49.519Z,8.93
2023-08-03T23:26:18.195Z,7.03
2023-08-03T23:28:47.058Z,4.30
2023-08-03T23:31:15.602Z,6.25
2023-08-03T23:33:44.171Z,5.65
2023-08-03T23:36:14.553Z,6.18
2023-08-03T23:38:43.120Z,4.07
2023-08-03T23:41:11.873Z,4.38
2023-08-03T23:43:40.510Z,3.25
2023-08-03T23:46:09.136Z,4.80
2023-08-03T23:48:37.687Z,4.60
2023-08-03T23:51:06.237Z,7.53
2023-08-03T23:53:36.188Z,6.75
2023-08-03T23:56:04.769Z,5.60
2023-08-03T23:58:33.365Z,4.97
